Darstellungsparameter: Aktuell verwendete Einstellungen:
Skalierung der Graphiken ... ?
xyx+y,   Skalierungsfaktor:      Skalierung: Modus: x, Faktor: 1
Darstellungszeitraum ... ?
Vom - - bis: - -   Zeitraum: 12.05.2005 - 18.05.2005
Min/Max/Avg-Anzeige ... ?
Zeige MMA aktuell
Zeige MMA Monat
Zeige MMA alles
Zeige --A aktuell
Zeige --A Monat
Zeige --A alles
Keine MMA-Anzeige
MMA:
Average (ber die Originaldaten)
MMA-Basis: 12.05.2005 - 18.05.2005
Quicknavigation für Darstellung... ?
Tage:      1T, 2T, 3T, 5T -1T -2T -3T -5T +1T +2T +3T +5T
Wochen: 1W, 2W, 3W -1W -2W -3W +1W +2W +3W
Monate: 1M, 3M, 6M -1M -3M -6M +1M +3M +6M
Jahre:    1J, 3J, 5J, 10J -1J -3J -5J -10J +1J +3J +5J +10J
Nutze für die Darstellung ... ?
Originaldaten oder Mittelwerte auf ...
Stundenbasis Tagesbasis Wochenbasis
Monatsbasis Jahresbasis      Datenbasis: Original-Daten
Darstellen als:
Statistik (Auto) Statistik J:M      Darstellung:
Zur Graphik,    zurück zur Übersicht aller Sensoren.
 
Tabellarische Datenbersicht: ?
 
Sensor: Nr:Datum:Temp:Abs-Feuchte:Windchill:Wind:
Aussen-T/F 1 12-05-2005 00:08:02 7.2 C 5.73 g/m*3 7.2 C 0 km/h
2 12-05-2005 00:20:03 7 C 5.73 g/m*3 7 C 0 km/h
3 12-05-2005 00:32:03 6.8 C 5.81 g/m*3 6.8 C 0 km/h
4 12-05-2005 00:44:03 6.5 C 5.85 g/m*3 6.5 C 0 km/h
5 12-05-2005 00:56:02 6.4 C 5.81 g/m*3 6.4 C 0 km/h
6 12-05-2005 01:08:02 6.2 C 5.81 g/m*3 6.2 C 0 km/h
7 12-05-2005 01:20:01 6 C 5.81 g/m*3 6 C 0 km/h
8 12-05-2005 01:32:02 5.8 C 5.87 g/m*3 5.8 C 0 km/h
9 12-05-2005 01:44:02 5.7 C 5.76 g/m*3 5.7 C 0 km/h
10 12-05-2005 01:56:03 5.6 C 5.73 g/m*3 5.6 C 0 km/h
11 12-05-2005 02:08:02 5.5 C 5.76 g/m*3 5.5 C 0 km/h
12 12-05-2005 02:20:02 5.3 C 5.75 g/m*3 5.3 C 0 km/h
13 12-05-2005 02:32:03 5.1 C 5.61 g/m*3 5.1 C 0 km/h
14 12-05-2005 02:44:03 5 C 5.64 g/m*3 5 C 0 km/h
15 12-05-2005 02:57:03 4.9 C 5.67 g/m*3 4.9 C 0 km/h
16 12-05-2005 03:09:03 4.8 C 5.63 g/m*3 4.8 C 0 km/h
17 12-05-2005 03:21:04 4.7 C 5.66 g/m*3 4.7 C 0 km/h
18 12-05-2005 03:33:02 4.4 C 5.55 g/m*3 4.4 C 0 km/h
19 12-05-2005 03:45:02 4.3 C 5.58 g/m*3 4.3 C 0 km/h
20 12-05-2005 03:57:02 4.2 C 5.54 g/m*3 4.2 C 0 km/h
21 12-05-2005 04:09:02 4.2 C 5.54 g/m*3 4.2 C 0 km/h
22 12-05-2005 04:21:02 3.9 C 5.49 g/m*3 3.9 C 0 km/h
23 12-05-2005 04:33:02 3.8 C 5.52 g/m*3 3.8 C 0 km/h
24 12-05-2005 04:45:02 3.7 C 5.48 g/m*3 3.7 C 0 km/h
25 12-05-2005 04:57:02 3.5 C 5.41 g/m*3 3.5 C 0 km/h
Sensor: Nr:Datum:Temp:Abs-Feuchte:Windchill:Wind:
Aussen-T/F 26 12-05-2005 05:09:02 3.4 C 5.37 g/m*3 3.4 C 0 km/h
27 12-05-2005 05:21:02 3.4 C 5.37 g/m*3 3.4 C 0 km/h
28 12-05-2005 05:33:02 3.3 C 5.4 g/m*3 3.3 C 0 km/h
29 12-05-2005 05:45:01 3.2 C 5.36 g/m*3 3.2 C 0 km/h
30 12-05-2005 05:57:01 3.2 C 5.36 g/m*3 3.2 C 0 km/h
31 12-05-2005 06:09:02 3.2 C 5.36 g/m*3 3.2 C 0 km/h
32 12-05-2005 06:21:01 3.2 C 5.36 g/m*3 3.2 C 0 km/h
33 12-05-2005 06:33:01 3.1 C 5.39 g/m*3 3.1 C 0 km/h
34 12-05-2005 06:45:01 3.1 C 5.45 g/m*3 3.1 C 0 km/h
35 12-05-2005 06:57:01 3.2 C 5.48 g/m*3 3.2 C 0 km/h
36 12-05-2005 07:09:02 3.3 C 5.52 g/m*3 3.3 C 0 km/h
37 12-05-2005 07:21:02 3.5 C 5.66 g/m*3 3.5 C 0 km/h
38 12-05-2005 07:33:02 3.8 C 5.77 g/m*3 3.8 C 0 km/h
39 12-05-2005 07:45:02 3.8 C 5.77 g/m*3 3.8 C 0 km/h
40 12-05-2005 07:57:02 4.2 C 5.93 g/m*3 4.2 C 0 km/h
41 12-05-2005 08:09:02 4.5 C 6.05 g/m*3 4.5 C 0 km/h
42 12-05-2005 08:21:02 4.9 C 6.21 g/m*3 4.9 C 0 km/h
43 12-05-2005 08:33:02 5.3 C 6.31 g/m*3 5.3 C 0 km/h
44 12-05-2005 08:45:02 5.6 C 6.43 g/m*3 5.6 C 0 km/h
45 12-05-2005 08:57:02 6.2 C 6.55 g/m*3 6.2 C 0 km/h
46 12-05-2005 09:09:02 6.9 C 6.77 g/m*3 6.9 C 0 km/h
47 12-05-2005 09:21:02 8 C 6.37 g/m*3 8 C 0 km/h
48 12-05-2005 09:33:02 8.8 C 6.27 g/m*3 8.8 C 0 km/h
49 12-05-2005 09:45:01 9.4 C 6.06 g/m*3 9.4 C 0 km/h
50 12-05-2005 09:57:01 10 C 5.83 g/m*3 10 C 0 km/h
Sensor: Nr:Datum:Temp:Abs-Feuchte:Windchill:Wind:
Aussen-T/F 51 12-05-2005 10:09:02 10.5 C 5.63 g/m*3 10.5 C 0 km/h
52 12-05-2005 10:21:01 11.2 C 5.68 g/m*3 11.2 C 0 km/h
53 12-05-2005 10:33:02 11.8 C 5.58 g/m*3 11.8 C 0 km/h
54 12-05-2005 10:45:02 12.2 C 5.5 g/m*3 12.2 C 0 km/h
55 12-05-2005 10:57:02 12.7 C 5.34 g/m*3 12.7 C 0 km/h
56 12-05-2005 11:09:02 13.2 C 5.17 g/m*3 13.2 C 0 km/h
57 12-05-2005 11:21:02 13.9 C 5.51 g/m*3 13.9 C 0 km/h
58 12-05-2005 11:33:02 14 C 5.07 g/m*3 14 C 0 km/h
59 12-05-2005 11:45:01 13.9 C 5.04 g/m*3 13.9 C 0 km/h
60 12-05-2005 11:57:01 14.8 C 5.19 g/m*3 14.8 C 0 km/h
61 12-05-2005 12:09:01 15.6 C 4.92 g/m*3 15.6 C 0 km/h
62 12-05-2005 12:21:02 16.4 C 4.89 g/m*3 16.4 C 0 km/h
63 12-05-2005 12:33:02 17.1 C 4.8 g/m*3 17.1 C 0 km/h
64 12-05-2005 12:45:01 17.2 C 4.54 g/m*3 17.2 C 0 km/h
65 12-05-2005 12:57:01 17.7 C 4.53 g/m*3 17.7 C 0 km/h
66 12-05-2005 13:09:02 18.7 C 4.48 g/m*3 18.7 C 0 km/h
67 12-05-2005 13:21:02 18.9 C 4.05 g/m*3 18.9 C 0 km/h
68 12-05-2005 13:33:01 19.1 C 3.93 g/m*3 19.1 C 0 km/h
69 12-05-2005 13:45:02 18.8 C 3.7 g/m*3 18.8 C 0 km/h
70 12-05-2005 13:57:02 18.8 C 4.03 g/m*3 18.8 C 0 km/h
71 12-05-2005 14:09:02 18.5 C 4.11 g/m*3 18.5 C 0 km/h
72 12-05-2005 14:21:02 18.7 C 4 g/m*3 18.7 C 0 km/h
73 12-05-2005 14:33:02 19.1 C 3.77 g/m*3 19.1 C 0 km/h
74 12-05-2005 14:45:02 19.3 C 3.81 g/m*3 19.3 C 0 km/h
75 12-05-2005 14:57:02 20 C 3.63 g/m*3 20 C 0 km/h
Sensor: Nr:Datum:Temp:Abs-Feuchte:Windchill:Wind:
Aussen-T/F 76 12-05-2005 15:09:02 19.9 C 3.44 g/m*3 19.9 C 0 km/h
77 12-05-2005 15:21:03 21.3 C 3.91 g/m*3 21.3 C 0 km/h
78 12-05-2005 15:33:02 21.2 C 3.71 g/m*3 21.2 C 0 km/h
79 12-05-2005 15:45:02 21.2 C 3.71 g/m*3 21.2 C 0 km/h
80 12-05-2005 15:57:02 21.9 C 3.86 g/m*3 21.9 C 0 km/h
81 12-05-2005 16:09:02 21.7 C 3.82 g/m*3 21.7 C 0 km/h
82 12-05-2005 16:21:02 22.5 C 3.99 g/m*3 22.5 C 0 km/h
83 12-05-2005 16:33:02 22.4 C 3.97 g/m*3 22.4 C 0 km/h
84 12-05-2005 16:45:02 23 C 4.11 g/m*3 23 C 0 km/h
85 12-05-2005 16:57:02 22.9 C 4.09 g/m*3 22.9 C 0 km/h
86 12-05-2005 17:09:02 23.3 C 4.18 g/m*3 23.3 C 0 km/h
87 12-05-2005 17:21:02 23.1 C 4.13 g/m*3 23.1 C 0 km/h
88 12-05-2005 17:33:02 22.8 C 4.06 g/m*3 22.8 C 0 km/h
89 12-05-2005 17:45:02 22.7 C 4.04 g/m*3 22.7 C 0 km/h
90 12-05-2005 17:57:02 22.8 C 4.06 g/m*3 22.8 C 0 km/h
91 12-05-2005 18:09:03 23 C 4.11 g/m*3 23 C 0 km/h
92 12-05-2005 18:21:03 22.4 C 3.97 g/m*3 22.4 C 0 km/h
93 12-05-2005 18:33:03 22.5 C 3.99 g/m*3 22.5 C 0 km/h
94 12-05-2005 18:45:02 22.9 C 4.09 g/m*3 22.9 C 0 km/h
95 12-05-2005 18:57:02 22.6 C 4.02 g/m*3 22.6 C 0 km/h
96 12-05-2005 19:09:02 22 C 3.88 g/m*3 22 C 0 km/h
97 12-05-2005 19:21:02 21.5 C 3.77 g/m*3 21.5 C 0 km/h
98 12-05-2005 19:33:02 20.6 C 3.76 g/m*3 20.6 C 0 km/h
99 12-05-2005 19:45:02 20.2 C 3.67 g/m*3 20.2 C 0 km/h
100 12-05-2005 19:57:02 19.8 C 4.27 g/m*3 19.8 C 0 km/h
Sensor: Nr:Datum:Temp:Abs-Feuchte:Windchill:Wind:
Aussen-T/F 101 12-05-2005 20:09:02 19.4 C 4.34 g/m*3 19.4 C 0 km/h
102 12-05-2005 20:21:02 18.7 C 4.16 g/m*3 18.7 C 0 km/h
103 12-05-2005 20:33:02 17.9 C 4.58 g/m*3 17.9 C 0 km/h
104 12-05-2005 20:45:02 17 C 5.06 g/m*3 17 C 0 km/h
105 12-05-2005 20:57:02 16.2 C 5.1 g/m*3 16.2 C 0 km/h
106 12-05-2005 21:09:02 15.3 C 5.09 g/m*3 15.3 C 0 km/h
107 12-05-2005 21:21:01 14.4 C 5.07 g/m*3 14.4 C 0 km/h
108 12-05-2005 21:33:01 13.8 C 5.24 g/m*3 13.8 C 0 km/h
109 12-05-2005 21:45:02 13.4 C 5.23 g/m*3 13.4 C 0 km/h
110 12-05-2005 21:57:02 13.3 C 5.2 g/m*3 13.3 C 0 km/h
111 12-05-2005 22:09:03 12.9 C 5.3 g/m*3 12.9 C 0 km/h
112 12-05-2005 22:21:02 12.6 C 5.2 g/m*3 12.6 C 0 km/h
113 12-05-2005 22:33:02 12.4 C 5.24 g/m*3 12.4 C 0 km/h
114 12-05-2005 22:45:01 12.1 C 5.25 g/m*3 12.1 C 0 km/h
115 12-05-2005 22:57:01 12.1 C 5.36 g/m*3 12.1 C 0 km/h
116 12-05-2005 23:09:01 11.8 C 5.37 g/m*3 11.8 C 0 km/h
117 12-05-2005 23:21:02 11.3 C 5.3 g/m*3 11.3 C 0 km/h
118 12-05-2005 23:33:02 11.4 C 5.23 g/m*3 11.4 C 0 km/h
119 12-05-2005 23:45:01 11.4 C 5.23 g/m*3 11.4 C 0 km/h
120 12-05-2005 23:57:01 11.2 C 5.17 g/m*3 11.2 C 0 km/h
121 13-05-2005 00:09:02 11 C 5.1 g/m*3 11 C 0 km/h
122 13-05-2005 00:21:03 10.6 C 5.17 g/m*3 10.6 C 0 km/h
123 13-05-2005 00:33:02 10.4 C 5.3 g/m*3 10.4 C 0 km/h
124 13-05-2005 00:45:03 10.4 C 5.2 g/m*3 10.4 C 0 km/h
125 13-05-2005 00:57:03 10.1 C 5.2 g/m*3 10.1 C 0 km/h
Sensor: Nr:Datum:Temp:Abs-Feuchte:Windchill:Wind:
Aussen-T/F 126 13-05-2005 01:09:03 10.1 C 5.2 g/m*3 10.1 C 0 km/h
127 13-05-2005 01:21:02 9.8 C 5.2 g/m*3 9.8 C 0 km/h
128 13-05-2005 01:33:02 9.6 C 5.31 g/m*3 9.6 C 0 km/h
129 13-05-2005 01:45:02 9.6 C 5.31 g/m*3 9.6 C 0 km/h
130 13-05-2005 01:57:02 9.3 C 5.3 g/m*3 9.3 C 0 km/h
131 13-05-2005 02:09:02 9.1 C 5.32 g/m*3 9.1 C 0 km/h
132 13-05-2005 02:21:02 8.8 C 5.4 g/m*3 8.8 C 0 km/h
133 13-05-2005 02:33:02 8.5 C 5.38 g/m*3 8.5 C 0 km/h
134 13-05-2005 02:46:04 8.4 C 5.34 g/m*3 8.4 C 0 km/h
135 13-05-2005 02:58:04 8.1 C 5.33 g/m*3 8.1 C 0 km/h
136 13-05-2005 03:10:03 8.1 C 5.41 g/m*3 8.1 C 0 km/h
137 13-05-2005 03:22:03 8 C 5.37 g/m*3 8 C 0 km/h
138 13-05-2005 03:34:02 7.9 C 5.42 g/m*3 7.9 C 0 km/h
139 13-05-2005 03:46:02 7.8 C 5.47 g/m*3 7.8 C 0 km/h
140 13-05-2005 03:58:02 7.7 C 5.51 g/m*3 7.7 C 0 km/h
141 13-05-2005 04:10:03 7.8 C 5.55 g/m*3 7.8 C 0 km/h
142 13-05-2005 04:22:02 7.8 C 5.63 g/m*3 7.8 C 0 km/h
143 13-05-2005 04:34:02 7.8 C 5.55 g/m*3 7.8 C 0 km/h
144 13-05-2005 04:46:02 7.6 C 5.48 g/m*3 7.6 C 0 km/h
145 13-05-2005 04:58:02 7.6 C 5.48 g/m*3 7.6 C 0 km/h
146 13-05-2005 05:10:02 7.5 C 5.52 g/m*3 7.5 C 0 km/h
147 13-05-2005 05:22:03 7.3 C 5.45 g/m*3 7.3 C 0 km/h
148 13-05-2005 05:34:02 7.3 C 5.45 g/m*3 7.3 C 0 km/h
149 13-05-2005 05:46:02 7.1 C 5.38 g/m*3 7.1 C 0 km/h
150 13-05-2005 05:58:02 6.8 C 5.35 g/m*3 6.8 C 0 km/h
Sensor: Nr:Datum:Temp:Abs-Feuchte:Windchill:Wind:
Aussen-T/F 151 13-05-2005 06:10:03 6.9 C 5.47 g/m*3 6.9 C 0 km/h
152 13-05-2005 06:22:02 6.9 C 5.47 g/m*3 6.9 C 0 km/h
153 13-05-2005 06:34:02 7 C 5.5 g/m*3 7 C 0 km/h
154 13-05-2005 06:46:02 7.3 C 5.53 g/m*3 7.3 C 0 km/h
155 13-05-2005 06:58:02 7.4 C 5.57 g/m*3 7.4 C 0 km/h
156 13-05-2005 07:10:02 7.5 C 5.68 g/m*3 7.5 C 0 km/h
157 13-05-2005 07:22:02 7.5 C 5.6 g/m*3 7.5 C 0 km/h
158 13-05-2005 07:34:02 7.9 C 5.83 g/m*3 7.9 C 0 km/h
159 13-05-2005 07:46:02 8.5 C 5.55 g/m*3 8.5 C 0 km/h
160 13-05-2005 07:58:02 9 C 5.29 g/m*3 9 C 0 km/h
161 13-05-2005 08:10:05 9.8 C 5.38 g/m*3 9.8 C 0 km/h
162 13-05-2005 08:22:01 10.3 C 5.17 g/m*3 10.3 C 0 km/h
163 13-05-2005 08:34:01 10.6 C 5.27 g/m*3 10.6 C 0 km/h
164 13-05-2005 08:46:02 10.8 C 5.14 g/m*3 10.8 C 0 km/h
165 13-05-2005 08:58:02 11.5 C 5.16 g/m*3 11.5 C 0 km/h
166 13-05-2005 09:10:02 12.2 C 5.07 g/m*3 12.2 C 0 km/h
167 13-05-2005 09:22:01 12.6 C 5.09 g/m*3 12.6 C 0 km/h
168 13-05-2005 09:34:02 13 C 5.1 g/m*3 13 C 0 km/h
169 13-05-2005 09:46:02 13.2 C 4.94 g/m*3 13.2 C 0 km/h
170 13-05-2005 09:58:02 13.5 C 5.03 g/m*3 13.5 C 0 km/h
171 13-05-2005 10:10:02 13.8 C 5.12 g/m*3 13.8 C 0 km/h
172 13-05-2005 10:22:02 14.6 C 5.13 g/m*3 14.6 C 0 km/h
173 13-05-2005 10:34:02 15.5 C 5.16 g/m*3 15.5 C 0 km/h
174 13-05-2005 10:46:02 16 C 5.04 g/m*3 16 C 0 km/h
175 13-05-2005 10:58:02 15.9 C 5.15 g/m*3 15.9 C 0 km/h
Sensor: Nr:Datum:Temp:Abs-Feuchte:Windchill:Wind:
Aussen-T/F 176 13-05-2005 11:10:02 16.1 C 5.21 g/m*3 16.1 C 0 km/h
177 13-05-2005 11:22:02 16.8 C 5.29 g/m*3 16.8 C 0 km/h
178 13-05-2005 11:34:02 17.6 C 5.4 g/m*3 17.6 C 0 km/h
179 13-05-2005 11:46:02 18.2 C 5.44 g/m*3 18.2 C 0 km/h
180 13-05-2005 11:58:02 19 C 4.89 g/m*3 19 C 0 km/h
181 13-05-2005 12:10:02 19.3 C 4.48 g/m*3 19.3 C 0 km/h
182 13-05-2005 12:22:02 19.7 C 4.42 g/m*3 19.7 C 0 km/h
183 13-05-2005 12:34:02 19.8 C 4.27 g/m*3 19.8 C 0 km/h
184 13-05-2005 12:46:01 19.5 C 4.03 g/m*3 19.5 C 0 km/h
185 13-05-2005 12:58:01 18.5 C 4.27 g/m*3 18.5 C 0 km/h
186 13-05-2005 13:10:02 18.4 C 4.56 g/m*3 18.4 C 0 km/h
187 13-05-2005 13:22:01 18.1 C 4.48 g/m*3 18.1 C 0 km/h
188 13-05-2005 13:34:01 17.9 C 4.58 g/m*3 17.9 C 0 km/h
189 13-05-2005 13:46:02 18.1 C 4.64 g/m*3 18.1 C 0 km/h
190 13-05-2005 13:58:02 18.3 C 4.85 g/m*3 18.3 C 0 km/h
191 13-05-2005 14:10:03 18.2 C 4.66 g/m*3 18.2 C 0 km/h
192 13-05-2005 14:22:02 18.5 C 4.75 g/m*3 18.5 C 0 km/h
193 13-05-2005 14:34:02 18.3 C 4.69 g/m*3 18.3 C 0 km/h
194 13-05-2005 14:46:02 17.8 C 5.16 g/m*3 17.8 C 0 km/h
195 13-05-2005 14:58:02 18.2 C 4.82 g/m*3 18.2 C 0 km/h
196 13-05-2005 15:10:04 18.3 C 4.85 g/m*3 18.3 C 0 km/h
197 13-05-2005 15:22:03 18.3 C 5 g/m*3 18.3 C 0 km/h
198 13-05-2005 15:34:03 18.4 C 5.03 g/m*3 18.4 C 0 km/h
199 13-05-2005 15:46:02 18.5 C 5.54 g/m*3 18.5 C 0 km/h
200 13-05-2005 15:58:02 18.9 C 5.35 g/m*3 18.9 C 0 km/h
Sensor: Nr:Datum:Temp:Abs-Feuchte:Windchill:Wind:
Aussen-T/F 201 13-05-2005 16:10:02 19.2 C 5.11 g/m*3 19.2 C 0 km/h
202 13-05-2005 16:22:02 19.3 C 5.14 g/m*3 19.3 C 0 km/h
203 13-05-2005 16:34:02 18.8 C 4.83 g/m*3 18.8 C 0 km/h
204 13-05-2005 16:46:03 18.5 C 5.06 g/m*3 18.5 C 0 km/h
205 13-05-2005 16:58:03 18.5 C 6.01 g/m*3 18.5 C 0 km/h
206 13-05-2005 17:10:06 18 C 6.3 g/m*3 18 C 0 km/h
207 13-05-2005 17:22:03 17.8 C 6.07 g/m*3 17.8 C 0 km/h
208 13-05-2005 17:34:04 17.3 C 5.89 g/m*3 17.3 C 0 km/h
209 13-05-2005 17:46:03 17.1 C 5.97 g/m*3 17.1 C 0 km/h
210 13-05-2005 17:58:03 16.9 C 6.04 g/m*3 16.9 C 0 km/h
211 13-05-2005 18:10:04 16.7 C 6.11 g/m*3 16.7 C 0 km/h
212 13-05-2005 18:22:03 16.6 C 5.93 g/m*3 16.6 C 0 km/h
213 13-05-2005 18:34:02 16.2 C 6.21 g/m*3 16.2 C 0 km/h
214 13-05-2005 18:46:02 16 C 5.99 g/m*3 16 C 0 km/h
215 13-05-2005 18:58:02 15.8 C 5.92 g/m*3 15.8 C 0 km/h
216 13-05-2005 19:10:04 15.7 C 6.02 g/m*3 15.7 C 0 km/h
217 13-05-2005 19:22:03 15.6 C 5.85 g/m*3 15.6 C 0 km/h
218 13-05-2005 19:34:02 15.2 C 5.84 g/m*3 15.2 C 0 km/h
219 13-05-2005 19:46:02 15.3 C 5.88 g/m*3 15.3 C 0 km/h
220 13-05-2005 19:58:02 15.2 C 5.71 g/m*3 15.2 C 0 km/h
221 13-05-2005 20:10:02 15.1 C 5.68 g/m*3 15.1 C 0 km/h
222 13-05-2005 20:22:02 14.8 C 5.7 g/m*3 14.8 C 0 km/h
223 13-05-2005 20:34:02 14.8 C 5.57 g/m*3 14.8 C 0 km/h
224 13-05-2005 20:46:02 14.5 C 5.6 g/m*3 14.5 C 0 km/h
225 13-05-2005 20:58:02 14.6 C 5.63 g/m*3 14.6 C 0 km/h
Sensor: Nr:Datum:Temp:Abs-Feuchte:Windchill:Wind:
Aussen-T/F 226 13-05-2005 21:10:03 14.6 C 5.76 g/m*3 14.6 C 0 km/h
227 13-05-2005 21:22:02 14.5 C 5.85 g/m*3 14.5 C 0 km/h
228 13-05-2005 21:34:02 14.3 C 5.9 g/m*3 14.3 C 0 km/h
229 13-05-2005 21:46:01 14.2 C 6.11 g/m*3 14.2 C 0 km/h
230 13-05-2005 21:58:01 14.1 C 6.07 g/m*3 14.1 C 0 km/h
231 13-05-2005 22:10:02 13.8 C 5.96 g/m*3 13.8 C 0 km/h
232 13-05-2005 22:22:02 13.5 C 6.08 g/m*3 13.5 C 0 km/h
233 13-05-2005 22:34:04 13 C 6.01 g/m*3 13 C 0 km/h
234 13-05-2005 22:46:02 12.7 C 6.23 g/m*3 12.7 C 0 km/h
235 13-05-2005 22:58:02 12.5 C 6.27 g/m*3 12.5 C 0 km/h
236 13-05-2005 23:10:02 12.8 C 6.5 g/m*3 12.8 C 0 km/h
237 13-05-2005 23:22:02 12.7 C 6.57 g/m*3 12.7 C 0 km/h
238 13-05-2005 23:34:02 12.7 C 6.68 g/m*3 12.7 C 0 km/h
239 13-05-2005 23:46:02 12.8 C 6.72 g/m*3 12.8 C 0 km/h
240 13-05-2005 23:58:02 12.8 C 6.83 g/m*3 12.8 C 0 km/h
241 14-05-2005 00:10:02 12.8 C 6.83 g/m*3 12.8 C 0 km/h
242 14-05-2005 00:22:03 12.5 C 6.82 g/m*3 12.5 C 0 km/h
243 14-05-2005 00:34:02 12.3 C 6.95 g/m*3 12.3 C 0 km/h
244 14-05-2005 00:46:02 12.2 C 6.91 g/m*3 12.2 C 0 km/h
245 14-05-2005 00:58:02 12.3 C 6.95 g/m*3 12.3 C 0 km/h
246 14-05-2005 01:10:01 12.2 C 7.01 g/m*3 12.2 C 0 km/h
247 14-05-2005 01:22:01 12.3 C 7.17 g/m*3 12.3 C 0 km/h
248 14-05-2005 01:34:01 12.2 C 7.12 g/m*3 12.2 C 0 km/h
249 14-05-2005 01:46:02 12.2 C 7.01 g/m*3 12.2 C 0 km/h
250 14-05-2005 01:58:02 12.1 C 7.18 g/m*3 12.1 C 0 km/h
Sensor: Nr:Datum:Temp:Abs-Feuchte:Windchill:Wind:
Aussen-T/F 251 14-05-2005 02:10:02 12 C 7.25 g/m*3 12 C 0 km/h
252 14-05-2005 02:22:02 12 C 7.14 g/m*3 12 C 0 km/h
253 14-05-2005 02:34:02 12 C 7.25 g/m*3 12 C 0 km/h
254 14-05-2005 02:47:03 12.1 C 7.4 g/m*3 12.1 C 0 km/h
255 14-05-2005 02:59:03 11.9 C 7.63 g/m*3 11.9 C 0 km/h
256 14-05-2005 03:11:03 11.8 C 7.68 g/m*3 11.8 C 0 km/h
257 14-05-2005 03:23:03 11.7 C 7.74 g/m*3 11.7 C 0 km/h
258 14-05-2005 03:35:02 11.7 C 7.64 g/m*3 11.7 C 0 km/h
259 14-05-2005 03:47:02 11.6 C 7.8 g/m*3 11.6 C 0 km/h
260 14-05-2005 03:59:02 11.3 C 7.75 g/m*3 11.3 C 0 km/h
261 14-05-2005 04:11:02 11.4 C 7.8 g/m*3 11.4 C 0 km/h
262 14-05-2005 04:23:01 11.4 C 7.7 g/m*3 11.4 C 0 km/h
263 14-05-2005 04:35:01 11.4 C 7.7 g/m*3 11.4 C 0 km/h
264 14-05-2005 04:47:02 11.4 C 7.8 g/m*3 11.4 C 0 km/h
265 14-05-2005 04:59:02 11.1 C 7.76 g/m*3 11.1 C 0 km/h
266 14-05-2005 05:11:01 11 C 7.81 g/m*3 11 C 0 km/h
267 14-05-2005 05:23:02 11 C 8.01 g/m*3 11 C 0 km/h
268 14-05-2005 05:35:02 10.9 C 8.06 g/m*3 10.9 C 0 km/h
269 14-05-2005 05:47:02 10.8 C 8.2 g/m*3 10.8 C 0 km/h
270 14-05-2005 05:59:02 10.8 C 8.4 g/m*3 10.8 C 0 km/h
271 14-05-2005 06:11:03 10.8 C 8.5 g/m*3 10.8 C 0 km/h
272 14-05-2005 06:23:02 10.7 C 8.55 g/m*3 10.7 C 0 km/h
273 14-05-2005 06:35:02 10.7 C 8.64 g/m*3 10.7 C 0 km/h
274 14-05-2005 06:47:02 10.7 C 8.74 g/m*3 10.7 C 0 km/h
275 14-05-2005 06:59:02 10.6 C 8.69 g/m*3 10.6 C 0 km/h
Sensor: Nr:Datum:Temp:Abs-Feuchte:Windchill:Wind:
Aussen-T/F 276 14-05-2005 07:11:02 10.4 C 8.67 g/m*3 10.4 C 0 km/h
277 14-05-2005 07:23:02 10.6 C 8.88 g/m*3 10.6 C 0 km/h
278 14-05-2005 07:35:02 10.8 C 9.09 g/m*3 10.8 C 0 km/h
279 14-05-2005 07:47:02 10.8 C 9.09 g/m*3 10.8 C 0 km/h
280 14-05-2005 07:59:03 10.8 C 9.09 g/m*3 10.8 C 0 km/h
281 14-05-2005 08:11:02 11 C 9.21 g/m*3 11 C 0 km/h
282 14-05-2005 08:23:02 11 C 9.21 g/m*3 11 C 0 km/h
283 14-05-2005 08:35:02 11.2 C 9.33 g/m*3 11.2 C 0 km/h
284 14-05-2005 08:47:02 11.3 C 9.28 g/m*3 11.3 C 0 km/h
285 14-05-2005 08:59:02 11.2 C 9.12 g/m*3 11.2 C 0 km/h
286 14-05-2005 09:11:02 11.1 C 8.96 g/m*3 11.1 C 0 km/h
287 14-05-2005 09:23:02 11.1 C 8.96 g/m*3 11.1 C 0 km/h
288 14-05-2005 09:35:02 10.9 C 8.85 g/m*3 10.9 C 0 km/h
289 14-05-2005 09:47:01 11 C 9.01 g/m*3 11 C 0 km/h
290 14-05-2005 09:59:01 11 C 9.01 g/m*3 11 C 0 km/h
291 14-05-2005 10:11:01 10.7 C 8.74 g/m*3 10.7 C 0 km/h
292 14-05-2005 10:23:02 10.4 C 8.67 g/m*3 10.4 C 0 km/h
293 14-05-2005 10:35:02 10.6 C 8.88 g/m*3 10.6 C 0 km/h
294 14-05-2005 10:47:02 10.7 C 9.04 g/m*3 10.7 C 0 km/h
295 14-05-2005 10:59:02 10.9 C 9.15 g/m*3 10.9 C 0 km/h
296 14-05-2005 11:11:01 10.9 C 9.15 g/m*3 10.9 C 0 km/h
297 14-05-2005 11:23:02 11 C 9.21 g/m*3 11 C 0 km/h
298 14-05-2005 11:35:03 11 C 9.21 g/m*3 11 C 0 km/h
299 14-05-2005 11:47:03 11 C 9.21 g/m*3 11 C 0 km/h
300 14-05-2005 11:59:03 11 C 9.21 g/m*3 11 C 0 km/h
Sensor: Nr:Datum:Temp:Abs-Feuchte:Windchill:Wind:
Aussen-T/F 301 14-05-2005 12:11:05 11 C 9.21 g/m*3 11 C 0 km/h
302 14-05-2005 12:23:04 11.1 C 9.27 g/m*3 11.1 C 0 km/h
303 14-05-2005 12:35:06 11.4 C 9.44 g/m*3 11.4 C 0 km/h
304 14-05-2005 12:47:03 11.5 C 9.5 g/m*3 11.5 C 0 km/h
305 14-05-2005 12:59:03 11.6 C 9.56 g/m*3 11.6 C 0 km/h
306 14-05-2005 13:11:03 11.5 C 9.5 g/m*3 11.5 C 0 km/h
307 14-05-2005 13:23:03 11.5 C 9.5 g/m*3 11.5 C 0 km/h
308 14-05-2005 13:35:03 11.5 C 9.5 g/m*3 11.5 C 0 km/h
309 14-05-2005 13:47:03 11.7 C 9.62 g/m*3 11.7 C 0 km/h
310 14-05-2005 13:59:03 11.6 C 9.56 g/m*3 11.6 C 0 km/h
311 14-05-2005 14:11:03 11.6 C 9.56 g/m*3 11.6 C 0 km/h
312 14-05-2005 14:23:01 11.7 C 9.62 g/m*3 11.7 C 0 km/h
313 14-05-2005 14:35:02 11.6 C 9.56 g/m*3 11.6 C 0 km/h
314 14-05-2005 14:47:02 11.7 C 9.62 g/m*3 11.7 C 0 km/h
315 14-05-2005 14:59:02 11.7 C 9.73 g/m*3 11.7 C 0 km/h
316 14-05-2005 15:11:02 11.6 C 9.67 g/m*3 11.6 C 0 km/h
317 14-05-2005 15:23:01 11.6 C 9.67 g/m*3 11.6 C 0 km/h
318 14-05-2005 15:35:02 11.9 C 9.85 g/m*3 11.9 C 0 km/h
319 14-05-2005 15:47:01 12.1 C 9.87 g/m*3 12.1 C 0 km/h
320 14-05-2005 15:59:01 11.9 C 9.85 g/m*3 11.9 C 0 km/h
321 14-05-2005 16:11:02 11.8 C 9.79 g/m*3 11.8 C 0 km/h
322 14-05-2005 16:23:01 11.8 C 9.79 g/m*3 11.8 C 0 km/h
323 14-05-2005 16:35:02 11.9 C 9.85 g/m*3 11.9 C 0 km/h
324 14-05-2005 16:47:02 11.8 C 9.79 g/m*3 11.8 C 0 km/h
325 14-05-2005 16:59:02 11.8 C 9.68 g/m*3 11.8 C 0 km/h
Sensor: Nr:Datum:Temp:Abs-Feuchte:Windchill:Wind:
Aussen-T/F 326 14-05-2005 17:11:02 12 C 9.8 g/m*3 12 C 0 km/h
327 14-05-2005 17:23:02 11.9 C 9.74 g/m*3 11.9 C 0 km/h
328 14-05-2005 17:35:03 11.7 C 9.62 g/m*3 11.7 C 0 km/h
329 14-05-2005 17:47:02 11.7 C 9.73 g/m*3 11.7 C 0 km/h
330 14-05-2005 17:59:02 11.6 C 9.67 g/m*3 11.6 C 0 km/h
331 14-05-2005 18:11:03 11.7 C 9.73 g/m*3 11.7 C 0 km/h
332 14-05-2005 18:23:03 11.6 C 9.67 g/m*3 11.6 C 0 km/h
333 14-05-2005 18:35:03 11.6 C 9.67 g/m*3 11.6 C 0 km/h
334 14-05-2005 18:47:03 11.6 C 9.67 g/m*3 11.6 C 0 km/h
335 14-05-2005 18:59:03 11.6 C 9.67 g/m*3 11.6 C 0 km/h
336 14-05-2005 19:11:03 11.5 C 9.61 g/m*3 11.5 C 0 km/h
337 14-05-2005 19:23:02 11.5 C 9.71 g/m*3 11.5 C 0 km/h
338 14-05-2005 19:35:03 11.5 C 9.71 g/m*3 11.5 C 0 km/h
339 14-05-2005 19:47:02 11.5 C 9.71 g/m*3 11.5 C 0 km/h
340 14-05-2005 19:59:02 11.5 C 9.71 g/m*3 11.5 C 0 km/h
341 14-05-2005 20:11:01 11.5 C 9.71 g/m*3 11.5 C 0 km/h
342 14-05-2005 20:23:01 11.5 C 9.71 g/m*3 11.5 C 0 km/h
343 14-05-2005 20:35:02 11.4 C 9.65 g/m*3 11.4 C 0 km/h
344 14-05-2005 20:47:02 11.3 C 9.59 g/m*3 11.3 C 0 km/h
345 14-05-2005 20:59:02 11.2 C 9.43 g/m*3 11.2 C 0 km/h
346 14-05-2005 21:11:02 11.1 C 9.37 g/m*3 11.1 C 0 km/h
347 14-05-2005 21:23:02 11.1 C 9.37 g/m*3 11.1 C 0 km/h
348 14-05-2005 21:35:02 11 C 9.31 g/m*3 11 C 0 km/h
349 14-05-2005 21:47:02 11 C 9.31 g/m*3 11 C 0 km/h
350 14-05-2005 21:59:02 10.9 C 9.35 g/m*3 10.9 C 0 km/h
Sensor: Nr:Datum:Temp:Abs-Feuchte:Windchill:Wind:
Aussen-T/F 351 14-05-2005 22:11:02 10.8 C 9.29 g/m*3 10.8 C 0 km/h
352 14-05-2005 22:23:02 10.8 C 9.29 g/m*3 10.8 C 0 km/h
353 14-05-2005 22:35:02 10.7 C 9.23 g/m*3 10.7 C 0 km/h
354 14-05-2005 22:47:02 10.6 C 9.17 g/m*3 10.6 C 0 km/h
355 14-05-2005 22:59:02 10.6 C 9.17 g/m*3 10.6 C 0 km/h
356 14-05-2005 23:11:02 10.6 C 9.17 g/m*3 10.6 C 0 km/h
357 14-05-2005 23:23:02 10.5 C 9.12 g/m*3 10.5 C 0 km/h
358 14-05-2005 23:35:02 10.6 C 9.17 g/m*3 10.6 C 0 km/h
359 14-05-2005 23:47:01 10.5 C 9.12 g/m*3 10.5 C 0 km/h
360 14-05-2005 23:59:01 10.5 C 9.12 g/m*3 10.5 C 0 km/h
361 15-05-2005 00:11:02 10.4 C 9.06 g/m*3 10.4 C 0 km/h
362 15-05-2005 00:23:02 10.4 C 9.06 g/m*3 10.4 C 0 km/h
363 15-05-2005 00:35:01 10.3 C 8.91 g/m*3 10.3 C 0 km/h
364 15-05-2005 00:47:03 10.2 C 8.85 g/m*3 10.2 C 0 km/h
365 15-05-2005 00:59:03 10.1 C 8.7 g/m*3 10.1 C 0 km/h
366 15-05-2005 01:11:03 9.9 C 8.59 g/m*3 9.9 C 0 km/h
367 15-05-2005 01:23:02 9.8 C 8.44 g/m*3 9.8 C 0 km/h
368 15-05-2005 01:35:03 9.9 C 8.31 g/m*3 9.9 C 0 km/h
369 15-05-2005 01:47:02 9.9 C 8.31 g/m*3 9.9 C 0 km/h
370 15-05-2005 01:59:02 9.7 C 8.2 g/m*3 9.7 C 0 km/h
371 15-05-2005 02:11:02 9.7 C 8.3 g/m*3 9.7 C 0 km/h
372 15-05-2005 02:23:02 9.7 C 8.3 g/m*3 9.7 C 0 km/h
373 15-05-2005 02:35:01 9.6 C 8.34 g/m*3 9.6 C 0 km/h
374 15-05-2005 02:48:03 9.5 C 8.28 g/m*3 9.5 C 0 km/h
375 15-05-2005 03:00:03 9.5 C 8.37 g/m*3 9.5 C 0 km/h
Sensor: Nr:Datum:Temp:Abs-Feuchte:Windchill:Wind:
Aussen-T/F 376 15-05-2005 03:12:03 9.3 C 8.27 g/m*3 9.3 C 0 km/h
377 15-05-2005 03:24:03 9.2 C 8.22 g/m*3 9.2 C 0 km/h
378 15-05-2005 03:36:02 9.2 C 8.3 g/m*3 9.2 C 0 km/h
379 15-05-2005 03:48:02 9.1 C 8.25 g/m*3 9.1 C 0 km/h
380 15-05-2005 04:00:02 9 C 8.2 g/m*3 9 C 0 km/h
381 15-05-2005 04:12:02 9 C 8.2 g/m*3 9 C 0 km/h
382 15-05-2005 04:24:01 9 C 8.2 g/m*3 9 C 0 km/h
383 15-05-2005 04:36:01 9 C 8.2 g/m*3 9 C 0 km/h
384 15-05-2005 04:48:02 8.9 C 8.23 g/m*3 8.9 C 0 km/h
385 15-05-2005 05:00:02 8.7 C 8.13 g/m*3 8.7 C 0 km/h
386 15-05-2005 05:12:02 8.3 C 7.92 g/m*3 8.3 C 0 km/h
387 15-05-2005 05:24:02 8.1 C 7.74 g/m*3 8.1 C 0 km/h
388 15-05-2005 05:36:03 8.2 C 7.79 g/m*3 8.2 C 0 km/h
389 15-05-2005 05:48:01 8.1 C 7.74 g/m*3 8.1 C 0 km/h
390 15-05-2005 06:00:01 8.2 C 7.79 g/m*3 8.2 C 0 km/h
391 15-05-2005 06:12:01 8.1 C 7.74 g/m*3 8.1 C 0 km/h
392 15-05-2005 06:24:02 8.2 C 7.7 g/m*3 8.2 C 0 km/h
393 15-05-2005 06:36:02 8.1 C 7.57 g/m*3 8.1 C 0 km/h
394 15-05-2005 06:48:01 8.2 C 7.54 g/m*3 8.2 C 0 km/h
395 15-05-2005 07:00:01 8.2 C 7.54 g/m*3 8.2 C 0 km/h
396 15-05-2005 07:12:02 8.4 C 7.55 g/m*3 8.4 C 0 km/h
397 15-05-2005 07:24:01 8.6 C 7.73 g/m*3 8.6 C 0 km/h
398 15-05-2005 07:36:01 8.9 C 7.88 g/m*3 8.9 C 0 km/h
399 15-05-2005 07:48:01 8.7 C 7.61 g/m*3 8.7 C 0 km/h
400 15-05-2005 08:00:01 8.8 C 7.4 g/m*3 8.8 C 0 km/h
Sensor: Nr:Datum:Temp:Abs-Feuchte:Windchill:Wind:
Aussen-T/F 401 15-05-2005 08:12:01 8.7 C 7.26 g/m*3 8.7 C 0 km/h
402 15-05-2005 08:24:01 8.5 C 6.49 g/m*3 8.5 C 0 km/h
403 15-05-2005 08:36:01 8.7 C 6.57 g/m*3 8.7 C 0 km/h
404 15-05-2005 08:48:02 9.1 C 6.57 g/m*3 9.1 C 0 km/h
405 15-05-2005 09:00:02 9.5 C 6.55 g/m*3 9.5 C 0 km/h
406 15-05-2005 09:12:02 9.7 C 6.45 g/m*3 9.7 C 0 km/h
407 15-05-2005 09:24:02 9.9 C 6.16 g/m*3 9.9 C 0 km/h
408 15-05-2005 09:36:02 9.9 C 6.16 g/m*3 9.9 C 0 km/h
409 15-05-2005 09:48:02 10.2 C 6 g/m*3 10.2 C 0 km/h
410 15-05-2005 10:00:02 10.5 C 5.82 g/m*3 10.5 C 0 km/h
411 15-05-2005 10:12:02 10.7 C 6.09 g/m*3 10.7 C 0 km/h
412 15-05-2005 10:24:02 11.6 C 5.92 g/m*3 11.6 C 0 km/h
413 15-05-2005 10:36:02 12 C 6.18 g/m*3 12 C 0 km/h
414 15-05-2005 10:48:02 11.9 C 5.93 g/m*3 11.9 C 0 km/h
415 15-05-2005 11:00:02 12 C 5.86 g/m*3 12 C 0 km/h
416 15-05-2005 11:12:02 12.6 C 5.86 g/m*3 12.6 C 0 km/h
417 15-05-2005 11:24:02 12.5 C 5.61 g/m*3 12.5 C 0 km/h
418 15-05-2005 11:36:02 13.9 C 5.75 g/m*3 13.9 C 0 km/h
419 15-05-2005 11:48:02 13.4 C 5.7 g/m*3 13.4 C 0 km/h
420 15-05-2005 12:00:02 13.5 C 5.26 g/m*3 13.5 C 0 km/h
421 15-05-2005 12:12:02 13.3 C 4.97 g/m*3 13.3 C 0 km/h
422 15-05-2005 12:24:02 12.5 C 4.84 g/m*3 12.5 C 0 km/h
423 15-05-2005 12:36:02 12.3 C 4.89 g/m*3 12.3 C 0 km/h
424 15-05-2005 12:48:03 12.1 C 4.83 g/m*3 12.1 C 0 km/h
425 15-05-2005 13:00:03 12.1 C 4.72 g/m*3 12.1 C 0 km/h
Sensor: Nr:Datum:Temp:Abs-Feuchte:Windchill:Wind:
Aussen-T/F 426 15-05-2005 13:12:03 12.4 C 5.03 g/m*3 12.4 C 0 km/h
427 15-05-2005 13:24:04 12.2 C 5.07 g/m*3 12.2 C 0 km/h
428 15-05-2005 13:36:05 12.1 C 5.15 g/m*3 12.1 C 0 km/h
429 15-05-2005 13:48:02 12.2 C 5.18 g/m*3 12.2 C 0 km/h
430 15-05-2005 14:00:02 12.1 C 5.47 g/m*3 12.1 C 0 km/h
431 15-05-2005 14:12:02 12 C 5.54 g/m*3 12 C 0 km/h
432 15-05-2005 14:24:02 12 C 5.65 g/m*3 12 C 0 km/h
433 15-05-2005 14:36:02 11.8 C 5.79 g/m*3 11.8 C 0 km/h
434 15-05-2005 14:48:02 11.8 C 5.89 g/m*3 11.8 C 0 km/h
435 15-05-2005 15:00:02 11.9 C 5.93 g/m*3 11.9 C 0 km/h
436 15-05-2005 15:12:02 12.2 C 5.94 g/m*3 12.2 C 0 km/h
437 15-05-2005 15:24:02 12.7 C 6.12 g/m*3 12.7 C 0 km/h
438 15-05-2005 15:36:02 12.7 C 6.12 g/m*3 12.7 C 0 km/h
439 15-05-2005 15:48:02 13 C 6.01 g/m*3 13 C 0 km/h
440 15-05-2005 16:00:02 13.3 C 6.12 g/m*3 13.3 C 0 km/h
441 15-05-2005 16:12:02 13.6 C 6.12 g/m*3 13.6 C 0 km/h
442 15-05-2005 16:24:03 13.2 C 5.97 g/m*3 13.2 C 0 km/h
443 15-05-2005 16:36:03 12.6 C 6.2 g/m*3 12.6 C 0 km/h
444 15-05-2005 16:48:01 12.5 C 6.27 g/m*3 12.5 C 0 km/h
445 15-05-2005 17:00:01 12.4 C 6.45 g/m*3 12.4 C 0 km/h
446 15-05-2005 17:12:02 12.3 C 6.41 g/m*3 12.3 C 0 km/h
447 15-05-2005 17:24:01 12.4 C 6.45 g/m*3 12.4 C 0 km/h
448 15-05-2005 17:36:01 12.6 C 6.42 g/m*3 12.6 C 0 km/h
449 15-05-2005 17:48:02 13 C 6.46 g/m*3 13 C 0 km/h
450 15-05-2005 18:00:02 12.8 C 6.5 g/m*3 12.8 C 0 km/h
Sensor: Nr:Datum:Temp:Abs-Feuchte:Windchill:Wind:
Aussen-T/F 451 15-05-2005 18:12:02 12.8 C 6.61 g/m*3 12.8 C 0 km/h
452 15-05-2005 18:24:02 12.6 C 6.75 g/m*3 12.6 C 0 km/h
453 15-05-2005 18:36:02 12.6 C 6.86 g/m*3 12.6 C 0 km/h
454 15-05-2005 18:48:02 12.7 C 6.79 g/m*3 12.7 C 0 km/h
455 15-05-2005 19:00:02 12.9 C 6.88 g/m*3 12.9 C 0 km/h
456 15-05-2005 19:12:03 12.6 C 6.75 g/m*3 12.6 C 0 km/h
457 15-05-2005 19:24:02 12.6 C 6.75 g/m*3 12.6 C 0 km/h
458 15-05-2005 19:36:03 12.5 C 6.71 g/m*3 12.5 C 0 km/h
459 15-05-2005 19:48:03 12.6 C 6.86 g/m*3 12.6 C 0 km/h
460 15-05-2005 20:00:03 12.7 C 7.01 g/m*3 12.7 C 0 km/h
461 15-05-2005 20:12:05 12.6 C 7.08 g/m*3 12.6 C 0 km/h
462 15-05-2005 20:24:03 12.5 C 7.26 g/m*3 12.5 C 0 km/h
463 15-05-2005 20:36:04 12 C 7.25 g/m*3 12 C 0 km/h
464 15-05-2005 20:48:02 11.2 C 7.1 g/m*3 11.2 C 0 km/h
465 15-05-2005 21:00:03 10.6 C 7.22 g/m*3 10.6 C 0 km/h
466 15-05-2005 21:12:02 10 C 7.05 g/m*3 10 C 0 km/h
467 15-05-2005 21:24:02 9.6 C 7.15 g/m*3 9.6 C 0 km/h
468 15-05-2005 21:36:01 9.3 C 7.1 g/m*3 9.3 C 0 km/h
469 15-05-2005 21:48:04 9.2 C 7.14 g/m*3 9.2 C 0 km/h
470 15-05-2005 22:00:04 9 C 7.14 g/m*3 9 C 0 km/h
471 15-05-2005 22:12:02 8.6 C 7.13 g/m*3 8.6 C 0 km/h
472 15-05-2005 22:24:03 8.4 C 7.13 g/m*3 8.4 C 0 km/h
473 15-05-2005 22:36:04 8.5 C 7.26 g/m*3 8.5 C 0 km/h
474 15-05-2005 22:48:03 8.2 C 7.2 g/m*3 8.2 C 0 km/h
475 15-05-2005 23:00:03 8.2 C 7.29 g/m*3 8.2 C 0 km/h
Sensor: Nr:Datum:Temp:Abs-Feuchte:Windchill:Wind:
Aussen-T/F 476 15-05-2005 23:12:03 8 C 7.19 g/m*3 8 C 0 km/h
477 15-05-2005 23:24:02 7.8 C 7.18 g/m*3 7.8 C 0 km/h
478 15-05-2005 23:36:02 7.7 C 7.14 g/m*3 7.7 C 0 km/h
479 15-05-2005 23:48:02 7.8 C 7.26 g/m*3 7.8 C 0 km/h
480 16-05-2005 00:00:02 7.6 C 7.17 g/m*3 7.6 C 0 km/h
481 16-05-2005 00:12:02 7.4 C 7.08 g/m*3 7.4 C 0 km/h
482 16-05-2005 00:24:02 7.3 C 7.03 g/m*3 7.3 C 0 km/h
483 16-05-2005 00:36:02 7.2 C 7.06 g/m*3 7.2 C 0 km/h
484 16-05-2005 00:48:02 7 C 6.97 g/m*3 7 C 0 km/h
485 16-05-2005 01:00:02 7 C 6.97 g/m*3 7 C 0 km/h
486 16-05-2005 01:12:01 6.8 C 7.04 g/m*3 6.8 C 0 km/h
487 16-05-2005 01:24:02 6.8 C 7.04 g/m*3 6.8 C 0 km/h
488 16-05-2005 01:36:02 6.6 C 6.95 g/m*3 6.6 C 0 km/h
489 16-05-2005 01:48:02 6.5 C 6.9 g/m*3 6.5 C 0 km/h
490 16-05-2005 02:00:02 6.4 C 6.85 g/m*3 6.4 C 0 km/h
491 16-05-2005 02:12:02 6.4 C 6.85 g/m*3 6.4 C 0 km/h
492 16-05-2005 02:24:02 6.2 C 6.77 g/m*3 6.2 C 0 km/h
493 16-05-2005 02:36:02 6 C 6.68 g/m*3 6 C 0 km/h
494 16-05-2005 02:49:03 5.9 C 6.63 g/m*3 5.9 C 0 km/h
495 16-05-2005 03:01:04 5.9 C 6.71 g/m*3 5.9 C 0 km/h
496 16-05-2005 03:13:03 5.7 C 6.62 g/m*3 5.7 C 0 km/h
497 16-05-2005 03:25:03 5.7 C 6.62 g/m*3 5.7 C 0 km/h
498 16-05-2005 03:37:02 5.8 C 6.73 g/m*3 5.8 C 0 km/h
499 16-05-2005 03:49:02 5.9 C 6.78 g/m*3 5.9 C 0 km/h
500 16-05-2005 04:01:03 5.8 C 6.73 g/m*3 5.8 C 0 km/h
Sensor: Nr:Datum:Temp:Abs-Feuchte:Windchill:Wind:
Aussen-T/F 501 16-05-2005 04:13:03 5.5 C 6.53 g/m*3 5.5 C 0 km/h
502 16-05-2005 04:25:02 5.4 C 6.49 g/m*3 5.4 C 0 km/h
503 16-05-2005 04:37:02 5.2 C 6.4 g/m*3 5.2 C 0 km/h
504 16-05-2005 04:49:02 5.4 C 6.49 g/m*3 5.4 C 0 km/h
505 16-05-2005 05:01:02 5.6 C 6.65 g/m*3 5.6 C 0 km/h
506 16-05-2005 05:13:02 5.4 C 6.56 g/m*3 5.4 C 0 km/h
507 16-05-2005 05:25:03 5.4 C 6.56 g/m*3 5.4 C 0 km/h
508 16-05-2005 05:37:02 5.3 C 6.52 g/m*3 5.3 C 0 km/h
509 16-05-2005 05:49:02 5.4 C 6.56 g/m*3 5.4 C 0 km/h
510 16-05-2005 06:01:02 5.4 C 6.56 g/m*3 5.4 C 0 km/h
511 16-05-2005 06:13:02 5.4 C 6.56 g/m*3 5.4 C 0 km/h
512 16-05-2005 06:25:02 5.6 C 6.72 g/m*3 5.6 C 0 km/h
513 16-05-2005 06:37:01 5.6 C 6.72 g/m*3 5.6 C 0 km/h
514 16-05-2005 06:49:02 5.6 C 6.65 g/m*3 5.6 C 0 km/h
515 16-05-2005 07:01:02 5.5 C 6.6 g/m*3 5.5 C 0 km/h
516 16-05-2005 07:13:02 5.4 C 6.56 g/m*3 5.4 C 0 km/h
517 16-05-2005 07:25:02 5.5 C 6.6 g/m*3 5.5 C 0 km/h
518 16-05-2005 07:37:02 5.7 C 6.69 g/m*3 5.7 C 0 km/h
519 16-05-2005 07:49:03 6.1 C 6.79 g/m*3 6.1 C 0 km/h
520 16-05-2005 08:01:02 6.8 C 7.11 g/m*3 6.8 C 0 km/h
521 16-05-2005 08:13:02 6.6 C 6.72 g/m*3 6.6 C 0 km/h
522 16-05-2005 08:25:02 6.7 C 6.69 g/m*3 6.7 C 0 km/h
523 16-05-2005 08:37:02 6.9 C 6.77 g/m*3 6.9 C 0 km/h
524 16-05-2005 08:49:01 7.2 C 6.75 g/m*3 7.2 C 0 km/h
525 16-05-2005 09:01:02 7.9 C 7.06 g/m*3 7.9 C 0 km/h
Sensor: Nr:Datum:Temp:Abs-Feuchte:Windchill:Wind:
Aussen-T/F 526 16-05-2005 09:13:02 8.6 C 7.13 g/m*3 8.6 C 0 km/h
527 16-05-2005 09:25:02 9.4 C 7.15 g/m*3 9.4 C 0 km/h
528 16-05-2005 09:37:01 9.1 C 6.74 g/m*3 9.1 C 0 km/h
529 16-05-2005 09:49:02 9.1 C 6.83 g/m*3 9.1 C 0 km/h
530 16-05-2005 10:01:03 9.6 C 7.05 g/m*3 9.6 C 0 km/h
531 16-05-2005 10:13:03 10.6 C 7.42 g/m*3 10.6 C 0 km/h
532 16-05-2005 10:25:03 11.1 C 7.35 g/m*3 11.1 C 0 km/h
533 16-05-2005 10:37:02 11.8 C 7.47 g/m*3 11.8 C 0 km/h
534 16-05-2005 10:49:02 12.6 C 7.52 g/m*3 12.6 C 0 km/h
535 16-05-2005 11:01:02 13.4 C 7.79 g/m*3 13.4 C 0 km/h
536 16-05-2005 11:13:03 14.1 C 7.65 g/m*3 14.1 C 0 km/h
537 16-05-2005 11:25:02 14.8 C 7.98 g/m*3 14.8 C 0 km/h
538 16-05-2005 11:37:02 15.4 C 7.88 g/m*3 15.4 C 0 km/h
539 16-05-2005 11:49:02 16 C 7.63 g/m*3 16 C 0 km/h
540 16-05-2005 12:01:02 16.4 C 7.12 g/m*3 16.4 C 0 km/h
541 16-05-2005 12:13:02 16.9 C 6.76 g/m*3 16.9 C 0 km/h
542 16-05-2005 12:25:02 17 C 6.95 g/m*3 17 C 0 km/h
543 16-05-2005 12:37:02 17.8 C 6.37 g/m*3 17.8 C 0 km/h
544 16-05-2005 12:49:02 18.7 C 6.08 g/m*3 18.7 C 0 km/h
545 16-05-2005 13:01:03 18.9 C 6.16 g/m*3 18.9 C 0 km/h
546 16-05-2005 13:13:03 20.4 C 6.19 g/m*3 20.4 C 0 km/h
547 16-05-2005 13:25:02 20.5 C 5.52 g/m*3 20.5 C 0 km/h
548 16-05-2005 13:37:02 21.6 C 5.69 g/m*3 21.6 C 0 km/h
549 16-05-2005 13:49:02 21.6 C 5.69 g/m*3 21.6 C 0 km/h
550 16-05-2005 14:01:03 20.6 C 5.73 g/m*3 20.6 C 0 km/h
Sensor: Nr:Datum:Temp:Abs-Feuchte:Windchill:Wind:
Aussen-T/F 551 16-05-2005 14:13:03 21.3 C 5.78 g/m*3 21.3 C 0 km/h
552 16-05-2005 14:25:02 22.1 C 5.66 g/m*3 22.1 C 0 km/h
553 16-05-2005 14:37:02 22.5 C 5.19 g/m*3 22.5 C 0 km/h
554 16-05-2005 14:49:02 21.5 C 5.09 g/m*3 21.5 C 0 km/h
555 16-05-2005 15:01:02 22.3 C 5.33 g/m*3 22.3 C 0 km/h
556 16-05-2005 15:13:02 22.7 C 5.46 g/m*3 22.7 C 0 km/h
557 16-05-2005 15:25:02 22.7 C 5.05 g/m*3 22.7 C 0 km/h
558 16-05-2005 15:37:02 21.5 C 4.9 g/m*3 21.5 C 0 km/h
559 16-05-2005 15:49:02 22.5 C 5.19 g/m*3 22.5 C 0 km/h
560 16-05-2005 16:01:02 22.7 C 5.05 g/m*3 22.7 C 0 km/h
561 16-05-2005 16:13:02 21.9 C 4.82 g/m*3 21.9 C 0 km/h
562 16-05-2005 16:25:02 21.3 C 4.85 g/m*3 21.3 C 0 km/h
563 16-05-2005 16:37:02 20.4 C 5.31 g/m*3 20.4 C 0 km/h
564 16-05-2005 16:49:02 19.3 C 5.14 g/m*3 19.3 C 0 km/h
565 16-05-2005 17:01:02 18.9 C 5.35 g/m*3 18.9 C 0 km/h
566 16-05-2005 17:13:03 18.6 C 5.57 g/m*3 18.6 C 0 km/h
567 16-05-2005 17:25:01 18.6 C 5.89 g/m*3 18.6 C 0 km/h
568 16-05-2005 17:37:02 18.6 C 7.16 g/m*3 18.6 C 0 km/h
569 16-05-2005 17:49:02 18.4 C 7.39 g/m*3 18.4 C 0 km/h
570 16-05-2005 18:01:02 18.1 C 7.26 g/m*3 18.1 C 0 km/h
571 16-05-2005 18:13:02 17.7 C 7.09 g/m*3 17.7 C 0 km/h
572 16-05-2005 18:25:02 17.6 C 7.2 g/m*3 17.6 C 0 km/h
573 16-05-2005 18:37:01 17.6 C 7.5 g/m*3 17.6 C 0 km/h
574 16-05-2005 18:49:02 17.5 C 7.31 g/m*3 17.5 C 0 km/h
575 16-05-2005 19:01:02 17.2 C 7.76 g/m*3 17.2 C 0 km/h
Sensor: Nr:Datum:Temp:Abs-Feuchte:Windchill:Wind:
Aussen-T/F 576 16-05-2005 19:13:02 16.6 C 6.36 g/m*3 16.6 C 0 km/h
577 16-05-2005 19:25:40 16.3 C 6.24 g/m*3 16.3 C 0 km/h
578 16-05-2005 19:37:40 16.1 C 6.58 g/m*3 16.1 C 0 km/h
579 16-05-2005 19:49:41 16 C 6.81 g/m*3 16 C 0 km/h
580 16-05-2005 20:01:41 15.7 C 7.23 g/m*3 15.7 C 0 km/h
581 16-05-2005 20:13:41 15.6 C 7.45 g/m*3 15.6 C 0 km/h
582 16-05-2005 20:25:41 15.4 C 7.36 g/m*3 15.4 C 0 km/h
583 16-05-2005 20:37:41 15.1 C 7.22 g/m*3 15.1 C 0 km/h
584 16-05-2005 20:49:41 14.8 C 7.35 g/m*3 14.8 C 0 km/h
585 16-05-2005 21:01:41 14.7 C 7.18 g/m*3 14.7 C 0 km/h
586 16-05-2005 21:13:41 14.5 C 7.34 g/m*3 14.5 C 0 km/h
587 16-05-2005 21:25:41 14.2 C 7.45 g/m*3 14.2 C 0 km/h
588 16-05-2005 21:37:41 14.1 C 7.4 g/m*3 14.1 C 0 km/h
589 16-05-2005 21:49:41 13.8 C 7.86 g/m*3 13.8 C 0 km/h
590 16-05-2005 22:01:41 13.5 C 8.19 g/m*3 13.5 C 0 km/h
591 16-05-2005 22:13:41 13.3 C 8.32 g/m*3 13.3 C 0 km/h
592 16-05-2005 22:25:02 12.8 C 8.62 g/m*3 12.8 C 0 km/h
593 16-05-2005 22:37:02 12.4 C 8.74 g/m*3 12.4 C 0 km/h
594 16-05-2005 22:49:02 12.2 C 8.85 g/m*3 12.2 C 0 km/h
595 16-05-2005 23:01:02 11.8 C 8.74 g/m*3 11.8 C 0 km/h
596 16-05-2005 23:13:02 11.9 C 8.68 g/m*3 11.9 C 0 km/h
597 16-05-2005 23:25:02 12 C 8.53 g/m*3 12 C 0 km/h
598 16-05-2005 23:37:02 12 C 8.42 g/m*3 12 C 0 km/h
599 16-05-2005 23:49:02 12.1 C 8.47 g/m*3 12.1 C 0 km/h
600 17-05-2005 00:01:01 12 C 8.21 g/m*3 12 C 0 km/h
Sensor: Nr:Datum:Temp:Abs-Feuchte:Windchill:Wind:
Aussen-T/F 601 17-05-2005 00:13:01 12.1 C 8.15 g/m*3 12.1 C 0 km/h
602 17-05-2005 00:25:02 12 C 8.1 g/m*3 12 C 0 km/h
603 17-05-2005 00:37:02 11.7 C 8.16 g/m*3 11.7 C 0 km/h
604 17-05-2005 00:49:02 11.4 C 8.21 g/m*3 11.4 C 0 km/h
605 17-05-2005 01:01:01 11.1 C 7.96 g/m*3 11.1 C 0 km/h
606 17-05-2005 01:13:01 10.9 C 7.86 g/m*3 10.9 C 0 km/h
607 17-05-2005 01:25:02 10.8 C 7.41 g/m*3 10.8 C 0 km/h
608 17-05-2005 01:37:01 11.1 C 7.15 g/m*3 11.1 C 0 km/h
609 17-05-2005 01:49:02 11.2 C 6.89 g/m*3 11.2 C 0 km/h
610 17-05-2005 02:01:01 11.4 C 6.67 g/m*3 11.4 C 0 km/h
611 17-05-2005 02:13:01 11.2 C 6.59 g/m*3 11.2 C 0 km/h
612 17-05-2005 02:25:02 11.2 C 6.59 g/m*3 11.2 C 0 km/h
613 17-05-2005 02:37:02 11.1 C 6.55 g/m*3 11.1 C 0 km/h
614 17-05-2005 02:50:03 11 C 6.61 g/m*3 11 C 0 km/h
615 17-05-2005 03:02:03 10.8 C 6.72 g/m*3 10.8 C 0 km/h
616 17-05-2005 03:14:03 10.6 C 6.73 g/m*3 10.6 C 0 km/h
617 17-05-2005 03:26:03 10.4 C 6.75 g/m*3 10.4 C 0 km/h
618 17-05-2005 03:38:02 10.2 C 6.76 g/m*3 10.2 C 0 km/h
619 17-05-2005 03:50:02 10.1 C 6.71 g/m*3 10.1 C 0 km/h
620 17-05-2005 04:02:02 9.9 C 6.82 g/m*3 9.9 C 0 km/h
621 17-05-2005 04:14:02 9.7 C 6.82 g/m*3 9.7 C 0 km/h
622 17-05-2005 04:26:02 9.7 C 6.82 g/m*3 9.7 C 0 km/h
623 17-05-2005 04:38:02 9.7 C 6.91 g/m*3 9.7 C 0 km/h
624 17-05-2005 04:50:02 9.6 C 6.96 g/m*3 9.6 C 0 km/h
625 17-05-2005 05:02:01 9.6 C 6.96 g/m*3 9.6 C 0 km/h
Sensor: Nr:Datum:Temp:Abs-Feuchte:Windchill:Wind:
Aussen-T/F 626 17-05-2005 05:14:01 9.6 C 7.05 g/m*3 9.6 C 0 km/h
627 17-05-2005 05:26:02 9.5 C 7.1 g/m*3 9.5 C 0 km/h
628 17-05-2005 05:38:01 9.5 C 7.19 g/m*3 9.5 C 0 km/h
629 17-05-2005 05:50:02 9.5 C 7.28 g/m*3 9.5 C 0 km/h
630 17-05-2005 06:02:02 9.3 C 7.19 g/m*3 9.3 C 0 km/h
631 17-05-2005 06:14:02 9.4 C 7.33 g/m*3 9.4 C 0 km/h
632 17-05-2005 06:26:02 9.6 C 7.42 g/m*3 9.6 C 0 km/h
633 17-05-2005 06:38:02 9.8 C 7.42 g/m*3 9.8 C 0 km/h
634 17-05-2005 06:50:02 9.8 C 7.42 g/m*3 9.8 C 0 km/h
635 17-05-2005 07:02:02 10 C 7.42 g/m*3 10 C 0 km/h
636 17-05-2005 07:14:02 10.1 C 7.47 g/m*3 10.1 C 0 km/h
637 17-05-2005 07:26:02 10.2 C 7.42 g/m*3 10.2 C 0 km/h
638 17-05-2005 07:38:03 10.2 C 7.23 g/m*3 10.2 C 0 km/h
639 17-05-2005 07:50:02 10.1 C 7.19 g/m*3 10.1 C 0 km/h
640 17-05-2005 08:02:02 10.1 C 7.19 g/m*3 10.1 C 0 km/h
641 17-05-2005 08:14:02 9.6 C 7.05 g/m*3 9.6 C 0 km/h
642 17-05-2005 08:26:01 9.5 C 7.01 g/m*3 9.5 C 0 km/h
643 17-05-2005 08:38:01 9.7 C 7.1 g/m*3 9.7 C 0 km/h
644 17-05-2005 08:50:02 9.8 C 7.05 g/m*3 9.8 C 0 km/h
645 17-05-2005 09:02:02 10 C 6.95 g/m*3 10 C 0 km/h
646 17-05-2005 09:14:02 10.1 C 7 g/m*3 10.1 C 0 km/h
647 17-05-2005 09:26:02 10.1 C 6.9 g/m*3 10.1 C 0 km/h
648 17-05-2005 09:38:02 10.1 C 6.9 g/m*3 10.1 C 0 km/h
649 17-05-2005 09:50:02 9.8 C 6.87 g/m*3 9.8 C 0 km/h
650 17-05-2005 10:02:03 9.4 C 6.96 g/m*3 9.4 C 0 km/h
Sensor: Nr:Datum:Temp:Abs-Feuchte:Windchill:Wind:
Aussen-T/F 651 17-05-2005 10:14:03 9.5 C 7.28 g/m*3 9.5 C 0 km/h
652 17-05-2005 10:26:02 9.2 C 6.97 g/m*3 9.2 C 0 km/h
653 17-05-2005 10:38:02 9.3 C 6.83 g/m*3 9.3 C 0 km/h
654 17-05-2005 10:50:02 9 C 6.7 g/m*3 9 C 0 km/h
655 17-05-2005 11:02:02 9 C 6.79 g/m*3 9 C 0 km/h
656 17-05-2005 11:14:02 8.9 C 6.75 g/m*3 8.9 C 0 km/h
657 17-05-2005 11:26:01 8.7 C 6.75 g/m*3 8.7 C 0 km/h
658 17-05-2005 11:38:02 8.5 C 6.74 g/m*3 8.5 C 0 km/h
659 17-05-2005 11:50:01 8.4 C 6.79 g/m*3 8.4 C 0 km/h
660 17-05-2005 12:02:01 8.6 C 6.87 g/m*3 8.6 C 0 km/h
661 17-05-2005 12:14:01 8.5 C 6.66 g/m*3 8.5 C 0 km/h
662 17-05-2005 12:26:01 8.5 C 6.57 g/m*3 8.5 C 0 km/h
663 17-05-2005 12:38:01 8.8 C 6.44 g/m*3 8.8 C 0 km/h
664 17-05-2005 12:50:01 9.1 C 6.21 g/m*3 9.1 C 0 km/h
665 17-05-2005 13:02:02 9.3 C 6.11 g/m*3 9.3 C 0 km/h
666 17-05-2005 13:14:02 9.8 C 6.31 g/m*3 9.8 C 0 km/h
667 17-05-2005 13:26:02 10.4 C 6.17 g/m*3 10.4 C 0 km/h
668 17-05-2005 13:38:01 10.2 C 5.9 g/m*3 10.2 C 0 km/h
669 17-05-2005 13:50:01 10.5 C 6.01 g/m*3 10.5 C 0 km/h
670 17-05-2005 14:02:02 11 C 5.91 g/m*3 11 C 0 km/h
671 17-05-2005 14:14:02 10.9 C 6.07 g/m*3 10.9 C 0 km/h
672 17-05-2005 14:26:01 10.6 C 5.76 g/m*3 10.6 C 0 km/h
673 17-05-2005 14:38:01 11.7 C 5.75 g/m*3 11.7 C 0 km/h
674 17-05-2005 14:50:02 11 C 5.71 g/m*3 11 C 0 km/h
675 17-05-2005 15:02:02 11.3 C 5.71 g/m*3 11.3 C 0 km/h
Sensor: Nr:Datum:Temp:Abs-Feuchte:Windchill:Wind:
Aussen-T/F 676 17-05-2005 15:14:02 13 C 5.67 g/m*3 13 C 0 km/h
677 17-05-2005 15:26:02 11.8 C 5.47 g/m*3 11.8 C 0 km/h
678 17-05-2005 15:38:01 13.4 C 5.58 g/m*3 13.4 C 0 km/h
679 17-05-2005 15:50:02 13 C 5.22 g/m*3 13 C 0 km/h
680 17-05-2005 16:02:02 13.4 C 5.46 g/m*3 13.4 C 0 km/h
681 17-05-2005 16:14:02 12.8 C 5.6 g/m*3 12.8 C 0 km/h
682 17-05-2005 16:26:02 12.8 C 5.6 g/m*3 12.8 C 0 km/h
683 17-05-2005 16:38:01 13.1 C 5.48 g/m*3 13.1 C 0 km/h
684 17-05-2005 16:50:01 12.8 C 5.26 g/m*3 12.8 C 0 km/h
685 17-05-2005 17:02:01 12.8 C 5.49 g/m*3 12.8 C 0 km/h
686 17-05-2005 17:14:01 12.7 C 5.34 g/m*3 12.7 C 0 km/h
687 17-05-2005 17:26:01 11.8 C 5.47 g/m*3 11.8 C 0 km/h
688 17-05-2005 17:38:03 11.4 C 5.44 g/m*3 11.4 C 0 km/h
689 17-05-2005 17:50:02 11.6 C 5.61 g/m*3 11.6 C 0 km/h
690 17-05-2005 18:02:04 11.8 C 5.58 g/m*3 11.8 C 0 km/h
691 17-05-2005 18:14:04 11.5 C 5.37 g/m*3 11.5 C 0 km/h
692 17-05-2005 18:26:02 11.1 C 5.44 g/m*3 11.1 C 0 km/h
693 17-05-2005 18:38:02 11.1 C 5.54 g/m*3 11.1 C 0 km/h
694 17-05-2005 18:50:02 11.2 C 5.57 g/m*3 11.2 C 0 km/h
695 17-05-2005 19:02:02 11 C 5.51 g/m*3 11 C 0 km/h
696 17-05-2005 19:14:02 10.9 C 5.57 g/m*3 10.9 C 0 km/h
697 17-05-2005 19:26:02 10.8 C 5.54 g/m*3 10.8 C 0 km/h
698 17-05-2005 19:38:02 10.6 C 5.47 g/m*3 10.6 C 0 km/h
699 17-05-2005 19:50:02 10.6 C 5.56 g/m*3 10.6 C 0 km/h
700 17-05-2005 20:02:02 10.4 C 5.49 g/m*3 10.4 C 0 km/h
Sensor: Nr:Datum:Temp:Abs-Feuchte:Windchill:Wind:
Aussen-T/F 701 17-05-2005 20:14:02 10.4 C 5.59 g/m*3 10.4 C 0 km/h
702 17-05-2005 20:26:02 10.4 C 5.69 g/m*3 10.4 C 0 km/h
703 17-05-2005 20:38:02 10.4 C 5.78 g/m*3 10.4 C 0 km/h
704 17-05-2005 20:50:02 10.3 C 5.75 g/m*3 10.3 C 0 km/h
705 17-05-2005 21:02:02 10.1 C 5.67 g/m*3 10.1 C 0 km/h
706 17-05-2005 21:14:02 9.6 C 5.95 g/m*3 9.6 C 0 km/h
707 17-05-2005 21:26:02 9 C 5.91 g/m*3 9 C 0 km/h
708 17-05-2005 21:38:02 8.6 C 5.93 g/m*3 8.6 C 0 km/h
709 17-05-2005 21:50:03 8.4 C 5.94 g/m*3 8.4 C 0 km/h
710 17-05-2005 22:02:03 8.5 C 5.81 g/m*3 8.5 C 0 km/h
711 17-05-2005 22:14:03 8.4 C 5.77 g/m*3 8.4 C 0 km/h
712 17-05-2005 22:26:03 8.2 C 5.78 g/m*3 8.2 C 0 km/h
713 17-05-2005 22:38:03 7.6 C 5.8 g/m*3 7.6 C 0 km/h
714 17-05-2005 22:50:03 7.1 C 5.69 g/m*3 7.1 C 0 km/h
715 17-05-2005 23:02:03 6.9 C 5.85 g/m*3 6.9 C 0 km/h
716 17-05-2005 23:14:03 6.8 C 5.89 g/m*3 6.8 C 0 km/h
717 17-05-2005 23:26:03 6.5 C 5.85 g/m*3 6.5 C 0 km/h
718 17-05-2005 23:38:03 6.2 C 5.74 g/m*3 6.2 C 0 km/h
719 17-05-2005 23:50:03 6 C 5.81 g/m*3 6 C 0 km/h
720 18-05-2005 00:02:03 5.8 C 5.8 g/m*3 5.8 C 0 km/h
721 18-05-2005 00:14:03 5.7 C 5.84 g/m*3 5.7 C 0 km/h
722 18-05-2005 00:26:03 5.6 C 5.8 g/m*3 5.6 C 0 km/h
723 18-05-2005 00:38:02 5.4 C 5.79 g/m*3 5.4 C 0 km/h
724 18-05-2005 00:50:01 5.5 C 5.9 g/m*3 5.5 C 0 km/h
725 18-05-2005 01:02:02 5.3 C 5.89 g/m*3 5.3 C 0 km/h
Sensor: Nr:Datum:Temp:Abs-Feuchte:Windchill:Wind:
Aussen-T/F 726 18-05-2005 01:14:02 5.1 C 5.81 g/m*3 5.1 C 0 km/h
727 18-05-2005 01:26:02 4.8 C 5.77 g/m*3 4.8 C 0 km/h
728 18-05-2005 01:38:02 4.7 C 5.8 g/m*3 4.7 C 0 km/h
729 18-05-2005 01:50:02 4.5 C 5.72 g/m*3 4.5 C 0 km/h
730 18-05-2005 02:02:02 4.5 C 5.72 g/m*3 4.5 C 0 km/h
731 18-05-2005 02:14:02 4.4 C 5.75 g/m*3 4.4 C 0 km/h
732 18-05-2005 02:26:02 4.2 C 5.73 g/m*3 4.2 C 0 km/h
733 18-05-2005 02:38:02 4.1 C 5.7 g/m*3 4.1 C 0 km/h
734 18-05-2005 02:51:03 4 C 5.66 g/m*3 4 C 0 km/h
735 18-05-2005 03:03:03 3.8 C 5.65 g/m*3 3.8 C 0 km/h
736 18-05-2005 03:15:04 3.6 C 5.57 g/m*3 3.6 C 0 km/h
737 18-05-2005 03:27:04 3.6 C 5.57 g/m*3 3.6 C 0 km/h
738 18-05-2005 03:39:02 3.5 C 5.53 g/m*3 3.5 C 0 km/h
739 18-05-2005 03:51:02 3.4 C 5.5 g/m*3 3.4 C 0 km/h
740 18-05-2005 04:03:02 3.2 C 5.42 g/m*3 3.2 C 0 km/h
741 18-05-2005 04:15:02 3.2 C 5.42 g/m*3 3.2 C 0 km/h
742 18-05-2005 04:27:02 2.9 C 5.37 g/m*3 2.9 C 0 km/h
743 18-05-2005 04:39:02 2.8 C 5.4 g/m*3 2.8 C 0 km/h
744 18-05-2005 04:51:02 2.5 C 5.23 g/m*3 2.5 C 0 km/h
745 18-05-2005 05:03:02 2.5 C 5.23 g/m*3 2.5 C 0 km/h
746 18-05-2005 05:15:02 2.4 C 5.2 g/m*3 2.4 C 0 km/h
747 18-05-2005 05:27:02 2.4 C 5.25 g/m*3 2.4 C 0 km/h
748 18-05-2005 05:39:03 2.4 C 5.25 g/m*3 2.4 C 0 km/h
749 18-05-2005 05:51:01 2.4 C 5.25 g/m*3 2.4 C 0 km/h
750 18-05-2005 06:03:01 2.4 C 5.25 g/m*3 2.4 C 0 km/h
Sensor: Nr:Datum:Temp:Abs-Feuchte:Windchill:Wind:
Aussen-T/F 751 18-05-2005 06:15:02 2.3 C 5.27 g/m*3 2.3 C 0 km/h
752 18-05-2005 06:27:02 2.4 C 5.31 g/m*3 2.4 C 0 km/h
753 18-05-2005 06:39:01 2.5 C 5.35 g/m*3 2.5 C 0 km/h
754 18-05-2005 06:51:01 2.8 C 5.46 g/m*3 2.8 C 0 km/h
755 18-05-2005 07:03:02 2.9 C 5.55 g/m*3 2.9 C 0 km/h
756 18-05-2005 07:15:01 3.2 C 5.6 g/m*3 3.2 C 0 km/h
757 18-05-2005 07:27:01 3.4 C 5.74 g/m*3 3.4 C 0 km/h
758 18-05-2005 07:39:01 3.7 C 5.86 g/m*3 3.7 C 0 km/h
759 18-05-2005 07:51:03 4.3 C 6.1 g/m*3 4.3 C 0 km/h
760 18-05-2005 08:03:02 4.8 C 6.3 g/m*3 4.8 C 0 km/h
761 18-05-2005 08:15:02 5.2 C 6.27 g/m*3 5.2 C 0 km/h
762 18-05-2005 08:27:02 5.4 C 6.14 g/m*3 5.4 C 0 km/h
763 18-05-2005 08:39:02 6 C 6.24 g/m*3 6 C 0 km/h
764 18-05-2005 08:51:02 6.4 C 6.11 g/m*3 6.4 C 0 km/h
765 18-05-2005 09:03:02 6.5 C 5.92 g/m*3 6.5 C 0 km/h
766 18-05-2005 09:15:02 6.7 C 5.85 g/m*3 6.7 C 0 km/h
767 18-05-2005 09:27:02 7.2 C 5.89 g/m*3 7.2 C 0 km/h
768 18-05-2005 09:39:03 7.8 C 5.96 g/m*3 7.8 C 0 km/h
769 18-05-2005 09:51:02 8.3 C 5.82 g/m*3 8.3 C 0 km/h
770 18-05-2005 10:03:03 8.2 C 5.78 g/m*3 8.2 C 0 km/h
771 18-05-2005 10:15:02 9 C 5.91 g/m*3 9 C 0 km/h
772 18-05-2005 10:27:02 9.5 C 5.73 g/m*3 9.5 C 0 km/h
773 18-05-2005 10:39:02 9.6 C 5.4 g/m*3 9.6 C 0 km/h
774 18-05-2005 10:51:02 10.3 C 5.36 g/m*3 10.3 C 0 km/h
775 18-05-2005 11:03:03 10.6 C 5.27 g/m*3 10.6 C 0 km/h
Sensor: Nr:Datum:Temp:Abs-Feuchte:Windchill:Wind:
Aussen-T/F 776 18-05-2005 11:15:02 11.2 C 4.76 g/m*3 11.2 C 0 km/h
777 18-05-2005 11:27:02 10.7 C 4.42 g/m*3 10.7 C 0 km/h
778 18-05-2005 11:39:02 11.6 C 4.57 g/m*3 11.6 C 0 km/h
779 18-05-2005 11:51:02 12.1 C 4.29 g/m*3 12.1 C 0 km/h
780 18-05-2005 12:03:02 12.4 C 4.26 g/m*3 12.4 C 0 km/h
781 18-05-2005 12:15:02 13.3 C 4.16 g/m*3 13.3 C 0 km/h
782 18-05-2005 12:27:02 14 C 4.22 g/m*3 14 C 0 km/h
783 18-05-2005 12:39:04 13.7 C 4.14 g/m*3 13.7 C 0 km/h
784 18-05-2005 12:51:02 13.9 C 4.2 g/m*3 13.9 C 0 km/h
785 18-05-2005 13:03:02 13.3 C 4.16 g/m*3 13.3 C 0 km/h
786 18-05-2005 13:15:02 14.1 C 4.37 g/m*3 14.1 C 0 km/h
787 18-05-2005 13:27:02 13.6 C 4.47 g/m*3 13.6 C 0 km/h
788 18-05-2005 13:39:02 13.6 C 4.47 g/m*3 13.6 C 0 km/h
789 18-05-2005 13:51:02 13 C 4.2 g/m*3 13 C 0 km/h
790 18-05-2005 14:03:02 14.3 C 4.05 g/m*3 14.3 C 0 km/h
791 18-05-2005 14:15:01 15 C 4.1 g/m*3 15 C 0 km/h
792 18-05-2005 14:27:01 14.5 C 4.1 g/m*3 14.5 C 0 km/h
793 18-05-2005 14:39:01 14.8 C 3.93 g/m*3 14.8 C 0 km/h
794 18-05-2005 14:51:02 15 C 3.98 g/m*3 15 C 0 km/h
795 18-05-2005 15:03:01 13.9 C 3.96 g/m*3 13.9 C 0 km/h
796 18-05-2005 15:15:02 13.7 C 4.03 g/m*3 13.7 C 0 km/h
797 18-05-2005 15:27:02 14.5 C 3.86 g/m*3 14.5 C 0 km/h
798 18-05-2005 15:39:02 14.9 C 3.82 g/m*3 14.9 C 0 km/h
799 18-05-2005 15:51:03 14.1 C 3.76 g/m*3 14.1 C 0 km/h
800 18-05-2005 16:03:03 13.2 C 3.79 g/m*3 13.2 C 0 km/h
Sensor: Nr:Datum:Temp:Abs-Feuchte:Windchill:Wind:
Aussen-T/F 801 18-05-2005 16:15:03 13.7 C 3.79 g/m*3 13.7 C 0 km/h
802 18-05-2005 16:27:03 14.7 C 4.03 g/m*3 14.7 C 0 km/h
803 18-05-2005 16:39:03 15.5 C 3.57 g/m*3 15.5 C 0 km/h
804 18-05-2005 16:51:03 16 C 3.54 g/m*3 16 C 0 km/h
805 18-05-2005 17:03:03 15.4 C 3.68 g/m*3 15.4 C 0 km/h
806 18-05-2005 17:15:02 15.2 C 3.76 g/m*3 15.2 C 0 km/h
807 18-05-2005 17:27:02 14.5 C 3.86 g/m*3 14.5 C 0 km/h
808 18-05-2005 17:39:02 16.2 C 4.14 g/m*3 16.2 C 0 km/h
809 18-05-2005 17:51:02 17.4 C 3.71 g/m*3 17.4 C 0 km/h
810 18-05-2005 18:03:02 17 C 3.47 g/m*3 17 C 0 km/h
811 18-05-2005 18:15:02 17.8 C 3.49 g/m*3 17.8 C 0 km/h
812 18-05-2005 18:27:02 18.2 C 3.42 g/m*3 18.2 C 0 km/h
813 18-05-2005 18:39:02 16.9 C 3.45 g/m*3 16.9 C 0 km/h
814 18-05-2005 18:51:02 18 C 3.53 g/m*3 18 C 0 km/h
815 18-05-2005 19:03:02 17.4 C 3.85 g/m*3 17.4 C 0 km/h
816 18-05-2005 19:15:02 18.2 C 4.04 g/m*3 18.2 C 0 km/h
817 18-05-2005 19:27:02 17.5 C 3.73 g/m*3 17.5 C 0 km/h
818 18-05-2005 19:39:02 16.8 C 3.57 g/m*3 16.8 C 0 km/h
819 18-05-2005 19:51:02 16.6 C 3.53 g/m*3 16.6 C 0 km/h
820 18-05-2005 20:03:02 16 C 3.54 g/m*3 16 C 0 km/h
821 18-05-2005 20:15:02 15.4 C 3.68 g/m*3 15.4 C 0 km/h
822 18-05-2005 20:27:02 15.3 C 3.92 g/m*3 15.3 C 0 km/h
823 18-05-2005 20:39:02 15 C 4.36 g/m*3 15 C 0 km/h
824 18-05-2005 20:51:02 14.1 C 4.37 g/m*3 14.1 C 0 km/h
825 18-05-2005 21:03:02 12.9 C 4.51 g/m*3 12.9 C 0 km/h
Sensor: Nr:Datum:Temp:Abs-Feuchte:Windchill:Wind:
Aussen-T/F 826 18-05-2005 21:15:02 11.8 C 4.53 g/m*3 11.8 C 0 km/h
827 18-05-2005 21:27:02 11 C 4.4 g/m*3 11 C 0 km/h
828 18-05-2005 21:39:02 10.5 C 4.46 g/m*3 10.5 C 0 km/h
829 18-05-2005 21:51:02 10.2 C 4.47 g/m*3 10.2 C 0 km/h
830 18-05-2005 22:03:02 10 C 4.7 g/m*3 10 C 0 km/h
831 18-05-2005 22:15:02 9.8 C 4.73 g/m*3 9.8 C 0 km/h
832 18-05-2005 22:27:02 9.5 C 4.82 g/m*3 9.5 C 0 km/h
833 18-05-2005 22:39:02 9 C 4.67 g/m*3 9 C 0 km/h
834 18-05-2005 22:51:02 8.7 C 4.76 g/m*3 8.7 C 0 km/h
835 18-05-2005 23:03:02 8.5 C 4.78 g/m*3 8.5 C 0 km/h
836 18-05-2005 23:15:01 8.2 C 4.86 g/m*3 8.2 C 0 km/h
837 18-05-2005 23:27:01 8.1 C 4.99 g/m*3 8.1 C 0 km/h
838 18-05-2005 23:39:02 7.8 C 4.98 g/m*3 7.8 C 0 km/h
839 18-05-2005 23:51:02 7.6 C 4.99 g/m*3 7.6 C 0 km/h

Legende:
   Min
   Max


Maximal/Minimal-Werte vom 12.05.2005 - 18.05.2005

Sensor Min Max Avg
Temp
(Aussen-T/F)
2.3 °C
18-05-2005  06:15:02
23.3 °C
12-05-2005  17:09:02
11.41 °C
Abs-Feuchte
(Aussen-T/F)
3.42 g/m*3
18-05-2005  18:27:02
9.87 g/m*3
14-05-2005  15:47:01
6.33 g/m*3
Windchill
(Aussen-T/F)
2.3 C
18-05-2005  06:15:02
23.3 C
12-05-2005  17:09:02
11.39 C

Die Daten stammen von einer Davis Vantage Pro 2 Wetter-Station und werden unter Linux mit der Software wview2wettercgi und aufbereitet. Alle Angaben erfolgen ohne Gewähr für ihre Vollständigkeit oder Richtigkeit.
Kontakt: Rainer Krienke krienke@uni-koblenz.de . Meine Webseiten an der Uni Koblenz oder privat.
Version: $Revision: 0.78 $